Time;durP1;ratioP1;P1;durP2;ratioP2;P2;SDS_P1;SDS_P2;PMS_P1;PMS_P2;Temp;Humidity;BMP_temperature;BMP_pressure;BME280_temperature;BME280_humidity;BME280_pressure;Samples;Min_cycle;Max_cycle;Signal;HPM_P1;HPM_P2
2023/04/14 00:01:23;0.00;0.00;0.62;0.00;0.00;0.62;2.47;1.73;;;24.80;22.60;;;;;;2265540;61;20429;-65
2023/04/14 00:04:07;0.00;0.00;0.62;0.00;0.00;0.62;2.03;1.67;;;24.70;22.50;;;;;;2267943;61;20839;-66
2023/04/14 00:06:55;0.00;0.00;0.62;0.00;0.00;0.62;2.40;1.90;;;24.70;22.50;;;;;;2268504;61;20363;-65
2023/04/14 00:09:41;0.00;0.00;0.62;0.00;0.00;0.62;2.50;2.00;;;24.70;22.50;;;;;;2268024;61;20375;-64
2023/04/14 00:12:26;0.00;0.00;0.62;0.00;0.00;0.62;2.70;1.67;;;24.70;22.50;;;;;;2268440;61;20358;-64
2023/04/14 00:15:11;0.00;0.00;0.62;0.00;0.00;0.62;2.10;1.50;;;24.70;22.50;;;;;;2268080;61;20800;-64
2023/04/14 00:17:57;0.00;0.00;0.62;0.00;0.00;0.62;3.03;1.60;;;24.70;22.50;;;;;;2268089;61;20387;-64
2023/04/14 00:20:41;0.00;0.00;0.62;0.00;0.00;0.62;2.60;1.60;;;24.70;22.50;;;;;;2267696;61;20410;-66
2023/04/14 00:23:26;0.00;0.00;0.62;0.00;0.00;0.62;2.77;1.70;;;24.70;22.50;;;;;;2268702;61;20817;-64
2023/04/14 00:26:11;0.00;0.00;0.62;0.00;0.00;0.62;2.83;1.97;;;24.70;22.50;;;;;;2267836;61;20429;-64
2023/04/14 00:28:59;0.00;0.00;0.62;0.00;0.00;0.62;2.17;1.60;;;24.70;22.50;;;;;;2264256;61;20930;-64
2023/04/14 00:31:44;0.00;0.00;0.62;0.00;0.00;0.62;2.37;1.80;;;24.70;22.60;;;;;;2267709;61;20402;-64
2023/04/14 00:34:30;0.00;0.00;0.62;0.00;0.00;0.62;2.30;1.57;;;24.70;22.50;;;;;;2265070;61;20352;-64
2023/04/14 00:37:15;0.00;0.00;0.62;0.00;0.00;0.62;2.20;1.73;;;24.60;22.50;;;;;;2268211;61;20402;-64
2023/04/14 00:40:00;0.00;0.00;0.62;0.00;0.00;0.62;2.73;1.80;;;24.60;22.50;;;;;;2267771;61;20390;-64
2023/04/14 00:42:46;0.00;0.00;0.62;0.00;0.00;0.62;2.33;1.70;;;24.70;22.60;;;;;;2268162;61;20457;-64
2023/04/14 00:45:33;0.00;0.00;0.62;0.00;0.00;0.62;2.37;1.60;;;24.60;22.50;;;;;;2265140;61;20874;-64
2023/04/14 00:48:19;0.00;0.00;0.62;0.00;0.00;0.62;2.70;2.03;;;24.60;22.50;;;;;;2267515;61;20374;-65
2023/04/14 00:51:05;0.00;0.00;0.62;0.00;0.00;0.62;2.40;1.73;;;24.60;22.50;;;;;;2268095;61;20367;-64
2023/04/14 00:53:52;0.00;0.00;0.62;0.00;0.00;0.62;2.47;1.57;;;24.60;22.50;;;;;;2264606;61;20363;-64
2023/04/14 00:56:38;0.00;0.00;0.62;0.00;0.00;0.62;2.50;2.00;;;24.60;22.50;;;;;;2268344;61;20355;-62
2023/04/14 00:59:22;0.00;0.00;0.62;0.00;0.00;0.62;2.40;1.90;;;24.60;22.50;;;;;;2268063;61;20372;-64
2023/04/14 01:02:07;0.00;0.00;0.62;0.00;0.00;0.62;2.30;1.53;;;24.60;22.50;;;;;;2264761;61;20390;-64
2023/04/14 01:04:52;0.00;0.00;0.62;0.00;0.00;0.62;2.37;1.73;;;24.60;22.50;;;;;;2268051;61;20403;-65
2023/04/14 01:07:39;0.00;0.00;0.62;0.00;0.00;0.62;1.93;1.60;;;24.60;22.50;;;;;;2264976;61;20456;-64
2023/04/14 01:10:33;0.00;0.00;0.62;0.00;0.00;0.62;3.13;2.10;;;24.60;22.50;;;;;;2266995;61;20856;-64
2023/04/14 01:13:33;0.00;0.00;0.62;0.00;0.00;0.62;2.50;1.70;;;24.60;22.50;;;;;;2264999;61;20907;-64
2023/04/14 01:16:28;0.00;0.00;0.62;0.00;0.00;0.62;1.60;1.30;;;24.60;22.50;;;;;;2267532;61;20359;-64
2023/04/14 01:19:36;0.00;0.00;0.62;0.00;0.00;0.62;2.03;1.43;;;24.50;22.40;;;;;;2267332;61;20437;-64
2023/04/14 01:22:25;0.00;0.00;0.62;0.00;0.00;0.62;2.10;1.70;;;24.50;22.40;;;;;;2267656;61;20763;-64
2023/04/14 01:25:51;0.00;0.00;0.62;0.00;0.00;0.62;2.17;1.70;;;24.50;22.40;;;;;;2500521;53;20447;-64
2023/04/14 01:29:00;0.00;0.00;0.62;0.00;0.00;0.62;1.70;1.40;;;24.50;22.40;;;;;;2260955;61;20392;-64
2023/04/14 01:31:54;0.00;0.00;0.62;0.00;0.00;0.62;2.10;1.70;;;24.50;22.40;;;;;;2260664;61;20760;-64
2023/04/14 01:34:50;0.00;0.00;0.62;0.00;0.00;0.62;2.20;1.63;;;24.50;22.50;;;;;;2263870;61;20886;-64
2023/04/14 01:37:43;0.00;0.00;0.62;0.00;0.00;0.62;2.40;1.47;;;24.50;22.50;;;;;;2264119;61;20423;-65
2023/04/14 01:40:30;0.00;0.00;0.62;0.00;0.00;0.62;2.50;1.70;;;24.50;22.50;;;;;;2260318;61;20356;-64
2023/04/14 01:43:16;0.00;0.00;0.62;0.00;0.00;0.62;2.93;1.63;;;24.40;22.40;;;;;;2263886;61;20411;-64
2023/04/14 01:46:08;0.00;0.00;0.62;0.00;0.00;0.62;2.23;1.83;;;24.40;22.40;;;;;;2260446;61;20384;-64
2023/04/14 01:48:55;0.00;0.00;0.62;0.00;0.00;0.62;2.00;1.50;;;24.40;22.40;;;;;;2263914;61;20670;-64
2023/04/14 01:51:42;0.00;0.00;0.62;0.00;0.00;0.62;2.13;1.57;;;24.40;22.40;;;;;;2261025;61;20773;-64
2023/04/14 01:54:28;0.00;0.00;0.62;0.00;0.00;0.62;2.30;1.60;;;24.50;22.50;;;;;;2260587;61;20387;-65
2023/04/14 01:57:18;0.00;0.00;0.62;0.00;0.00;0.62;1.87;1.30;;;24.40;22.40;;;;;;2260735;61;20356;-64
2023/04/14 02:00:06;0.00;0.00;0.62;0.00;0.00;0.62;2.27;1.70;;;24.40;22.40;;;;;;2258075;61;20817;-64
2023/04/14 02:03:00;0.00;0.00;0.62;0.00;0.00;0.62;2.70;1.80;;;24.40;22.40;;;;;;2264039;61;20355;-64
2023/04/14 02:05:52;0.00;0.00;0.62;0.00;0.00;0.62;1.83;1.50;;;24.40;22.40;;;;;;2260704;61;20948;-64
2023/04/14 02:08:39;0.00;0.00;0.62;0.00;0.00;0.62;2.57;1.80;;;24.40;22.40;;;;;;2260576;61;20384;-64
2023/04/14 02:11:26;0.00;0.00;0.62;0.00;0.00;0.62;2.10;1.40;;;24.40;22.40;;;;;;2260602;61;20451;-64
2023/04/14 02:14:12;0.00;0.00;0.62;0.00;0.00;0.62;2.87;1.67;;;24.40;22.40;;;;;;2264053;61;20356;-67
2023/04/14 02:16:58;0.00;0.00;0.62;0.00;0.00;0.62;2.63;2.27;;;24.30;22.30;;;;;;2264141;61;20410;-67
2023/04/14 02:19:44;0.00;0.00;0.62;0.00;0.00;0.62;2.07;1.47;;;24.40;22.40;;;;;;2260358;61;20450;-66
2023/04/14 02:22:30;0.00;0.00;0.62;0.00;0.00;0.62;2.33;1.60;;;24.30;22.30;;;;;;2264156;61;20388;-64
2023/04/14 02:25:15;0.00;0.00;0.62;0.00;0.00;0.62;2.60;1.77;;;24.40;22.40;;;;;;2260708;61;20380;-64
2023/04/14 02:28:05;0.00;0.00;0.62;0.00;0.00;0.62;1.90;1.33;;;24.30;22.30;;;;;;2260804;61;20408;-64
2023/04/14 02:30:53;0.00;0.00;0.62;0.00;0.00;0.62;2.20;1.60;;;24.30;22.40;;;;;;2263465;61;20368;-64
2023/04/14 02:33:38;0.00;0.00;0.62;0.00;0.00;0.62;2.20;1.70;;;24.30;22.30;;;;;;2263772;61;20790;-64
2023/04/14 02:36:33;0.00;0.00;0.62;0.00;0.00;0.62;1.70;1.20;;;24.30;22.30;;;;;;2260699;61;20356;-64
2023/04/14 02:39:36;0.00;0.00;0.62;0.00;0.00;0.62;2.37;1.60;;;24.30;22.30;;;;;;2346759;40;20417;-64
2023/04/14 02:42:25;0.00;0.00;0.62;0.00;0.00;0.62;2.33;1.60;;;24.30;22.40;;;;;;2272926;60;20357;-64
2023/04/14 02:45:15;0.00;0.00;0.62;0.00;0.00;0.62;2.00;1.33;;;24.30;22.40;;;;;;2276675;60;20385;-64
2023/04/14 02:48:08;0.00;0.00;0.62;0.00;0.00;0.62;2.23;1.70;;;24.30;22.40;;;;;;2273378;60;20373;-64
2023/04/14 02:50:55;0.00;0.00;0.62;0.00;0.00;0.62;1.77;1.13;;;24.30;22.40;;;;;;2273608;60;20445;-64
2023/04/14 02:53:44;0.00;0.00;0.62;0.00;0.00;0.62;1.70;1.30;;;24.30;22.40;;;;;;2273237;60;20365;-63
2023/04/14 02:56:38;0.00;0.00;0.62;0.00;0.00;0.62;1.93;1.43;;;24.30;22.40;;;;;;2270925;60;20389;-64
2023/04/14 02:59:25;0.00;0.00;0.62;0.00;0.00;0.62;1.90;1.30;;;24.30;22.40;;;;;;2273437;60;20377;-65
2023/04/14 03:02:18;0.00;0.00;0.62;0.00;0.00;0.62;2.13;1.50;;;24.30;22.40;;;;;;2273601;60;20402;-66
2023/04/14 03:05:09;0.00;0.00;0.62;0.00;0.00;0.62;2.10;1.43;;;24.30;22.40;;;;;;2273263;60;20946;-65
2023/04/14 03:11:27;0.00;0.00;0.62;0.00;0.00;0.62;2.10;1.40;;;24.20;22.30;;;;;;2267045;61;20456;-65
2023/04/14 03:14:14;0.00;0.00;0.62;0.00;0.00;0.62;1.80;1.43;;;24.20;22.30;;;;;;2268104;61;20377;-64
2023/04/14 03:17:00;0.00;0.00;0.62;0.00;0.00;0.62;3.07;1.70;;;24.20;22.30;;;;;;2268650;61;20366;-64
2023/04/14 03:19:47;0.00;0.00;0.62;0.00;0.00;0.62;2.17;1.40;;;24.20;22.30;;;;;;2265811;61;20363;-65
2023/04/14 03:22:37;0.00;0.00;0.62;0.00;0.00;0.62;2.00;1.67;;;24.20;22.30;;;;;;2266680;61;20778;-64
2023/04/14 03:25:26;0.00;0.00;0.62;0.00;0.00;0.62;2.10;1.23;;;24.20;22.40;;;;;;2262759;61;20996;-65
2023/04/14 03:28:18;0.00;0.00;0.62;0.00;0.00;0.62;1.97;1.27;;;24.20;22.30;;;;;;2266801;61;20407;-68
2023/04/14 03:31:08;0.00;0.00;0.62;0.00;0.00;0.62;2.40;1.70;;;24.20;22.30;;;;;;2266005;61;20376;-64
2023/04/14 03:34:05;0.00;0.00;0.62;0.00;0.00;0.62;2.13;1.53;;;24.20;22.30;;;;;;2266136;61;20368;-64
2023/04/14 03:36:56;0.00;0.00;0.62;0.00;0.00;0.62;1.97;1.43;;;24.20;22.30;;;;;;2263887;61;20929;-64
2023/04/14 03:39:42;0.00;0.00;0.62;0.00;0.00;0.62;2.10;1.60;;;24.10;22.30;;;;;;2263771;61;20356;-64
2023/04/14 03:42:28;0.00;0.00;0.62;0.00;0.00;0.62;2.37;1.77;;;24.10;22.30;;;;;;2263995;61;20456;-64
2023/04/14 03:45:14;0.00;0.00;0.62;0.00;0.00;0.62;1.70;1.20;;;24.10;22.30;;;;;;2263549;61;20441;-64
2023/04/14 03:48:03;0.00;0.00;0.62;0.00;0.00;0.62;1.93;1.43;;;24.10;22.30;;;;;;2263876;61;20375;-68
2023/04/14 03:50:55;0.00;0.00;0.62;0.00;0.00;0.62;2.10;1.43;;;24.10;22.30;;;;;;2260978;61;20920;-64
2023/04/14 03:53:42;0.00;0.00;0.62;0.00;0.00;0.62;1.97;1.27;;;24.10;22.30;;;;;;2263580;61;20379;-64
2023/04/14 03:56:30;0.00;0.00;0.62;0.00;0.00;0.62;2.20;1.40;;;24.10;22.30;;;;;;2264185;61;20460;-64
2023/04/14 03:59:18;0.00;0.00;0.62;0.00;0.00;0.62;1.80;1.40;;;24.10;22.30;;;;;;2263409;61;20447;-63
2023/04/14 04:02:05;0.00;0.00;0.62;0.00;0.00;0.62;1.80;1.50;;;24.10;22.30;;;;;;2263826;61;20418;-64
2023/04/14 04:04:53;0.00;0.00;0.62;0.00;0.00;0.62;2.10;1.70;;;24.10;22.30;;;;;;2264449;61;20852;-64
2023/04/14 04:07:40;0.00;0.00;0.62;0.00;0.00;0.62;1.90;1.40;;;24.10;22.30;;;;;;2262535;61;20410;-64
2023/04/14 04:10:26;0.00;0.00;0.62;0.00;0.00;0.62;3.00;1.43;;;24.10;22.30;;;;;;2264699;61;20920;-65
2023/04/14 04:13:17;0.00;0.00;0.62;0.00;0.00;0.62;1.77;1.47;;;24.10;22.30;;;;;;2259964;61;20459;-65
2023/04/14 04:16:07;0.00;0.00;0.62;0.00;0.00;0.62;1.90;1.63;;;24.10;22.30;;;;;;2259787;61;20345;-69
2023/04/14 04:18:53;0.00;0.00;0.62;0.00;0.00;0.62;2.60;1.70;;;24.10;22.30;;;;;;2259332;61;20486;-64
2023/04/14 04:21:48;0.00;0.00;0.62;0.00;0.00;0.62;1.77;1.17;;;24.10;22.30;;;;;;2260045;61;20369;-64
2023/04/14 04:24:38;0.00;0.00;0.62;0.00;0.00;0.62;1.90;1.47;;;24.00;22.30;;;;;;2259544;61;20393;-64
2023/04/14 04:27:26;0.00;0.00;0.62;0.00;0.00;0.62;1.70;1.27;;;24.00;22.30;;;;;;2260117;61;20385;-64
2023/04/14 04:30:13;0.00;0.00;0.62;0.00;0.00;0.62;1.77;1.30;;;24.00;22.30;;;;;;2259295;61;20762;-68
2023/04/14 04:33:01;0.00;0.00;0.62;0.00;0.00;0.62;1.90;1.37;;;24.00;22.30;;;;;;2259726;61;20381;-65
2023/04/14 04:35:47;0.00;0.00;0.62;0.00;0.00;0.62;1.63;1.33;;;24.00;22.30;;;;;;2259964;61;20769;-64
2023/04/14 04:38:33;0.00;0.00;0.62;0.00;0.00;0.62;2.13;1.53;;;24.00;22.30;;;;;;2258512;61;20389;-65
2023/04/14 04:41:22;0.00;0.00;0.62;0.00;0.00;0.62;1.87;1.30;;;24.00;22.30;;;;;;2260335;61;20515;-64
2023/04/14 04:44:08;0.00;0.00;0.62;0.00;0.00;0.62;2.00;1.30;;;24.00;22.30;;;;;;2259460;61;20898;-66
2023/04/14 04:46:54;0.00;0.00;0.62;0.00;0.00;0.62;2.00;1.40;;;24.00;22.20;;;;;;2259824;61;20364;-64
2023/04/14 04:49:42;0.00;0.00;0.62;0.00;0.00;0.62;2.00;1.40;;;24.00;22.30;;;;;;2259858;61;20368;-64
2023/04/14 04:52:27;0.00;0.00;0.62;0.00;0.00;0.62;2.30;1.50;;;24.00;22.30;;;;;;2259462;61;20427;-64
2023/04/14 04:55:13;0.00;0.00;0.62;0.00;0.00;0.62;2.17;1.53;;;23.90;22.20;;;;;;2260177;61;20492;-64
2023/04/14 04:57:58;0.00;0.00;0.62;0.00;0.00;0.62;1.90;1.40;;;23.90;22.20;;;;;;2260262;61;20401;-64
2023/04/14 05:00:43;0.00;0.00;0.62;0.00;0.00;0.62;2.20;1.43;;;23.90;22.20;;;;;;2259800;61;20458;-65
2023/04/14 05:03:27;0.00;0.00;0.62;0.00;0.00;0.62;1.97;1.40;;;23.90;22.20;;;;;;2260182;61;20536;-64
2023/04/14 05:06:12;0.00;0.00;0.62;0.00;0.00;0.62;2.43;1.83;;;23.90;22.20;;;;;;2259861;61;20929;-65
2023/04/14 05:08:57;0.00;0.00;0.62;0.00;0.00;0.62;1.77;1.40;;;23.90;22.20;;;;;;2259899;61;20388;-64
2023/04/14 05:11:44;0.00;0.00;0.62;0.00;0.00;0.62;2.20;1.63;;;23.90;22.20;;;;;;2257444;61;20452;-64
2023/04/14 05:14:29;0.00;0.00;0.62;0.00;0.00;0.62;2.40;1.50;;;23.90;22.20;;;;;;2259655;61;20380;-64
2023/04/14 05:17:14;0.00;0.00;0.62;0.00;0.00;0.62;2.07;1.60;;;23.90;22.20;;;;;;2260168;61;20369;-64
2023/04/14 05:20:00;0.00;0.00;0.62;0.00;0.00;0.62;2.23;1.60;;;23.90;22.20;;;;;;2259928;61;20365;-65
2023/04/14 05:22:45;0.00;0.00;0.62;0.00;0.00;0.62;2.23;1.60;;;23.90;22.20;;;;;;2260215;61;20455;-64
2023/04/14 05:25:30;0.00;0.00;0.62;0.00;0.00;0.62;2.30;1.53;;;23.90;22.20;;;;;;2260083;61;20392;-64
2023/04/14 05:28:16;0.00;0.00;0.62;0.00;0.00;0.62;1.80;1.33;;;23.90;22.20;;;;;;2259984;61;20440;-64
2023/04/14 05:31:01;0.00;0.00;0.62;0.00;0.00;0.62;1.93;1.40;;;23.90;22.20;;;;;;2259455;61;20787;-64
2023/04/14 05:33:45;0.00;0.00;0.62;0.00;0.00;0.62;2.33;1.57;;;23.90;22.70;;;;;;2260237;61;20376;-64
2023/04/14 05:36:30;0.00;0.00;0.62;0.00;0.00;0.62;1.97;1.40;;;23.90;22.20;;;;;;2261948;61;20360;-64
2023/04/14 05:39:15;0.00;0.00;0.62;0.00;0.00;0.62;2.10;1.67;;;23.80;22.10;;;;;;2358781;39;20405;-64
2023/04/14 05:42:00;0.00;0.00;0.62;0.00;0.00;0.62;3.50;2.03;;;23.80;22.20;;;;;;2275427;60;20783;-64
2023/04/14 05:44:46;0.00;0.00;0.62;0.00;0.00;0.62;2.13;1.43;;;23.80;22.20;;;;;;2275940;60;20389;-65
2023/04/14 05:47:31;0.00;0.00;0.62;0.00;0.00;0.62;2.13;1.63;;;23.80;22.20;;;;;;2276077;60;20511;-64
2023/04/14 05:50:16;0.00;0.00;0.62;0.00;0.00;0.62;2.50;1.80;;;23.80;22.20;;;;;;2275781;60;20356;-64
2023/04/14 05:53:02;0.00;0.00;0.62;0.00;0.00;0.62;2.60;2.07;;;23.80;22.20;;;;;;2276438;60;20404;-64
2023/04/14 05:55:49;0.00;0.00;0.62;0.00;0.00;0.62;2.13;1.50;;;23.80;22.20;;;;;;2276193;60;20361;-64
2023/04/14 05:58:34;0.00;0.00;0.62;0.00;0.00;0.62;2.07;1.57;;;23.80;22.20;;;;;;2276079;60;20415;-65
2023/04/14 06:01:20;0.00;0.00;0.62;0.00;0.00;0.62;2.33;1.93;;;23.80;22.20;;;;;;2276173;60;20620;-64
2023/04/14 06:04:05;0.00;0.00;0.62;0.00;0.00;0.62;2.80;2.50;;;23.80;22.20;;;;;;2276291;60;20502;-65
2023/04/14 06:06:50;0.00;0.00;0.62;0.00;0.00;0.62;2.90;2.10;;;23.80;22.20;;;;;;2275932;60;20674;-64
2023/04/14 06:09:35;0.00;0.00;0.62;0.00;0.00;0.62;3.90;2.40;;;23.80;22.20;;;;;;2275532;60;20361;-65
2023/04/14 06:12:19;0.00;0.00;0.62;0.00;0.00;0.62;4.27;3.40;;;23.80;22.20;;;;;;2272952;60;20485;-65
2023/04/14 06:15:06;0.00;0.00;0.62;0.00;0.00;0.62;3.70;2.73;;;23.80;22.20;;;;;;2272684;60;20399;-65
2023/04/14 06:17:52;0.00;0.00;0.62;0.00;0.00;0.62;3.23;2.93;;;23.80;22.20;;;;;;2276343;60;20446;-64
2023/04/14 06:20:37;0.00;0.00;0.62;0.00;0.00;0.62;4.10;3.53;;;23.80;22.20;;;;;;2275785;60;20781;-65
2023/04/14 06:23:23;0.00;0.00;0.62;0.00;0.00;0.62;3.90;3.13;;;23.80;22.30;;;;;;2276131;60;20372;-64
2023/04/14 06:26:08;0.00;0.00;0.62;0.00;0.00;0.62;4.17;3.00;;;23.80;22.30;;;;;;2276212;60;20405;-64
2023/04/14 06:28:52;0.00;0.00;0.62;0.00;0.00;0.62;4.00;3.10;;;23.80;22.30;;;;;;2275767;60;20422;-67
2023/04/14 06:31:37;0.00;0.00;0.62;0.00;0.00;0.62;4.10;3.30;;;23.80;22.80;;;;;;2276144;60;20744;-64
2023/04/14 06:34:23;0.00;0.00;0.62;0.00;0.00;0.62;3.80;3.40;;;23.80;22.30;;;;;;2276009;60;20899;-65
2023/04/14 06:37:08;0.00;0.00;0.62;0.00;0.00;0.62;4.23;3.33;;;23.80;22.30;;;;;;2276021;60;20938;-64
2023/04/14 06:39:53;0.00;0.00;0.62;0.00;0.00;0.62;3.80;3.43;;;23.80;22.30;;;;;;2275784;60;20406;-65
2023/04/14 06:42:37;0.00;0.00;0.62;0.00;0.00;0.62;4.63;3.33;;;23.80;22.30;;;;;;2275992;60;20368;-64
2023/04/14 06:45:22;0.00;0.00;0.62;0.00;0.00;0.62;3.73;3.07;;;23.80;22.30;;;;;;2275581;60;20849;-63
2023/04/14 06:48:07;0.00;0.00;0.62;0.00;0.00;0.62;5.60;3.70;;;23.80;22.30;;;;;;2276209;60;20422;-64
2023/04/14 06:50:54;0.00;0.00;0.62;0.00;0.00;0.62;3.90;3.53;;;23.80;22.30;;;;;;2275568;60;20357;-64
2023/04/14 06:53:39;0.00;0.00;0.62;0.00;0.00;0.62;3.67;2.70;;;23.80;22.30;;;;;;2275917;60;20418;-64
2023/04/14 06:56:25;0.00;0.00;0.62;0.00;0.00;0.62;4.40;3.03;;;23.70;22.20;;;;;;2276091;60;20415;-64
2023/04/14 06:59:09;0.00;0.00;0.62;0.00;0.00;0.62;4.70;3.37;;;23.80;22.30;;;;;;2343037;39;20408;-65
2023/04/14 07:01:55;0.00;0.00;0.62;0.00;0.00;0.62;4.00;3.60;;;23.80;22.30;;;;;;2278181;60;20437;-68
2023/04/14 07:04:39;0.00;0.00;0.62;0.00;0.00;0.62;4.20;3.50;;;23.80;22.30;;;;;;2279984;60;20912;-64
2023/04/14 07:07:25;0.00;0.00;0.62;0.00;0.00;0.62;4.27;3.43;;;23.80;22.30;;;;;;2280272;60;20900;-64
2023/04/14 07:10:11;0.00;0.00;0.62;0.00;0.00;0.62;4.00;3.20;;;23.70;22.30;;;;;;2280039;60;20416;-64
2023/04/14 07:12:56;0.00;0.00;0.62;0.00;0.00;0.62;4.73;3.27;;;23.80;22.30;;;;;;2279819;60;20639;-63
2023/04/14 07:15:46;0.00;0.00;0.62;0.00;0.00;0.62;3.23;2.63;;;23.70;22.30;;;;;;2280031;60;20406;-64
2023/04/14 07:18:30;0.00;0.00;0.62;0.00;0.00;0.62;4.10;3.30;;;23.70;22.80;;;;;;2280045;60;20448;-65
2023/04/14 07:21:15;0.00;0.00;0.62;0.00;0.00;0.62;4.93;3.30;;;23.80;22.30;;;;;;2279964;60;20375;-64
2023/04/14 07:24:01;0.00;0.00;0.62;0.00;0.00;0.62;3.83;2.97;;;23.70;22.30;;;;;;2280032;60;20813;-64
2023/04/14 07:26:45;0.00;0.00;0.62;0.00;0.00;0.62;3.30;3.00;;;23.80;22.40;;;;;;2280004;60;20364;-64
2023/04/14 07:29:32;0.00;0.00;0.62;0.00;0.00;0.62;3.63;2.90;;;23.70;22.30;;;;;;2279777;60;20365;-64
2023/04/14 07:32:17;0.00;0.00;0.62;0.00;0.00;0.62;4.00;3.03;;;23.80;22.40;;;;;;2280837;60;20361;-64
2023/04/14 07:35:02;0.00;0.00;0.62;0.00;0.00;0.62;3.37;2.97;;;23.80;22.40;;;;;;2280375;60;20448;-64
2023/04/14 07:37:47;0.00;0.00;0.62;0.00;0.00;0.62;3.20;2.90;;;23.80;22.40;;;;;;2280725;60;20452;-66
2023/04/14 07:40:33;0.00;0.00;0.62;0.00;0.00;0.62;3.80;2.63;;;23.80;22.40;;;;;;2280670;60;20823;-64
2023/04/14 07:43:17;0.00;0.00;0.62;0.00;0.00;0.62;3.50;2.73;;;23.80;22.40;;;;;;2280920;60;20913;-64
2023/04/14 07:46:03;0.00;0.00;0.62;0.00;0.00;0.62;3.10;2.67;;;23.80;22.40;;;;;;2280750;60;20380;-64
2023/04/14 07:48:48;0.00;0.00;0.62;0.00;0.00;0.62;3.20;2.67;;;23.70;22.30;;;;;;2280604;60;20373;-64
2023/04/14 07:51:33;0.00;0.00;0.62;0.00;0.00;0.62;3.30;2.80;;;23.70;22.30;;;;;;2280887;60;20820;-66
2023/04/14 07:54:18;0.00;0.00;0.62;0.00;0.00;0.62;3.60;2.60;;;23.80;22.40;;;;;;2280698;60;20352;-64
2023/04/14 07:57:03;0.00;0.00;0.62;0.00;0.00;0.62;3.50;2.70;;;23.70;22.30;;;;;;2280577;60;20780;-65
2023/04/14 07:59:48;0.00;0.00;0.62;0.00;0.00;0.62;3.20;2.53;;;23.70;22.30;;;;;;2280274;60;20365;-65
2023/04/14 08:02:33;0.00;0.00;0.62;0.00;0.00;0.62;3.20;2.67;;;23.80;22.40;;;;;;2280960;60;20356;-64
2023/04/14 08:05:18;0.00;0.00;0.62;0.00;0.00;0.62;3.27;2.60;;;23.80;22.40;;;;;;2280228;60;20587;-64
2023/04/14 08:08:03;0.00;0.00;0.62;0.00;0.00;0.62;2.60;2.07;;;23.80;22.40;;;;;;2280274;60;20388;-64
2023/04/14 08:10:48;0.00;0.00;0.62;0.00;0.00;0.62;3.03;2.50;;;23.80;22.40;;;;;;2280203;60;20352;-64
2023/04/14 08:13:34;0.00;0.00;0.62;0.00;0.00;0.62;3.10;2.60;;;23.70;22.30;;;;;;2280495;60;20386;-64
2023/04/14 08:16:19;0.00;0.00;0.62;0.00;0.00;0.62;2.70;2.20;;;23.80;22.40;;;;;;2280708;60;20403;-64
2023/04/14 08:19:04;0.00;0.00;0.62;0.00;0.00;0.62;2.40;1.87;;;23.80;22.40;;;;;;2280042;60;20979;-65
2023/04/14 08:21:50;0.00;0.00;0.62;0.00;0.00;0.62;2.63;2.23;;;23.80;22.40;;;;;;2280450;60;20376;-64
2023/04/14 08:24:35;0.00;0.00;0.62;0.00;0.00;0.62;3.13;2.53;;;23.80;22.40;;;;;;2280873;60;20376;-64
2023/04/14 08:27:20;0.00;0.00;0.62;0.00;0.00;0.62;2.70;2.20;;;23.80;22.40;;;;;;2280450;60;20461;-65
2023/04/14 08:30:09;0.00;0.00;0.62;0.00;0.00;0.62;2.40;1.93;;;23.80;22.40;;;;;;2280124;60;20493;-64
2023/04/14 08:32:54;0.00;0.00;0.62;0.00;0.00;0.62;3.20;2.70;;;23.80;22.40;;;;;;2280661;60;20381;-66
2023/04/14 08:35:39;0.00;0.00;0.62;0.00;0.00;0.62;3.17;2.13;;;23.80;22.40;;;;;;2280792;60;20349;-64
2023/04/14 08:38:24;0.00;0.00;0.62;0.00;0.00;0.62;2.73;2.20;;;23.80;22.40;;;;;;2280517;60;20419;-64
2023/04/14 08:41:12;0.00;0.00;0.62;0.00;0.00;0.62;2.80;2.17;;;23.80;22.40;;;;;;2280136;60;20676;-65
2023/04/14 08:43:57;0.00;0.00;0.62;0.00;0.00;0.62;2.77;2.23;;;23.80;22.40;;;;;;2280501;60;20353;-66
2023/04/14 08:46:44;0.00;0.00;0.62;0.00;0.00;0.62;2.07;1.60;;;23.80;22.40;;;;;;2280873;60;20506;-65
2023/04/14 08:49:42;0.00;0.00;0.62;0.00;0.00;0.62;2.70;2.10;;;23.80;22.40;;;;;;2279967;60;20950;-64
2023/04/14 08:52:29;0.00;0.00;0.62;0.00;0.00;0.62;2.97;2.10;;;23.80;22.40;;;;;;2280832;60;20389;-64
2023/04/14 08:55:15;0.00;0.00;0.62;0.00;0.00;0.62;2.53;1.77;;;23.80;22.40;;;;;;2280507;60;20337;-65
2023/04/14 09:00:50;0.00;0.00;0.62;0.00;0.00;0.62;2.40;1.80;;;23.80;22.40;;;;;;2273169;61;20385;-64
2023/04/14 09:03:36;0.00;0.00;0.62;0.00;0.00;0.62;2.50;1.60;;;23.80;22.40;;;;;;2271929;61;20353;-69
2023/04/14 09:06:22;0.00;0.00;0.62;0.00;0.00;0.62;2.13;1.80;;;23.80;22.40;;;;;;2272238;61;20406;-64
2023/04/14 09:09:07;0.00;0.00;0.62;0.00;0.00;0.62;2.20;1.60;;;23.80;22.50;;;;;;2272309;61;20985;-64
2023/04/14 09:11:53;0.00;0.00;0.62;0.00;0.00;0.62;2.53;1.83;;;23.80;22.40;;;;;;2272155;61;20793;-64
2023/04/14 09:14:39;0.00;0.00;0.62;0.00;0.00;0.62;2.17;1.70;;;23.90;22.50;;;;;;2271456;61;20899;-64
2023/04/14 09:17:25;0.00;0.00;0.62;0.00;0.00;0.62;2.50;1.87;;;23.80;22.50;;;;;;2272291;61;20700;-64
2023/04/14 09:20:13;0.00;0.00;0.62;0.00;0.00;0.62;2.40;1.60;;;23.80;22.50;;;;;;2271876;61;20386;-67
2023/04/14 09:22:58;0.00;0.00;0.62;0.00;0.00;0.62;1.97;1.33;;;23.90;22.50;;;;;;2272725;61;21104;-67
2023/04/14 09:25:43;0.00;0.00;0.62;0.00;0.00;0.62;2.33;1.60;;;23.90;22.50;;;;;;2271554;61;20950;-66
2023/04/14 09:28:28;0.00;0.00;0.62;0.00;0.00;0.62;1.70;1.30;;;23.90;22.50;;;;;;2271897;60;20381;-64
2023/04/14 09:31:13;0.00;0.00;0.62;0.00;0.00;0.62;1.87;1.37;;;23.90;22.50;;;;;;2271779;61;20358;-65
2023/04/14 09:33:58;0.00;0.00;0.62;0.00;0.00;0.62;2.20;1.43;;;23.90;22.60;;;;;;2271996;61;20819;-64
2023/04/14 09:37:02;0.00;0.00;0.62;0.00;0.00;0.62;1.83;1.40;;;23.90;22.50;;;;;;2272217;61;20378;-65
2023/04/14 09:39:49;0.00;0.00;0.62;0.00;0.00;0.62;2.43;1.57;;;23.90;22.60;;;;;;2271754;61;20384;-64
2023/04/14 09:42:39;0.00;0.00;0.62;0.00;0.00;0.62;2.67;1.60;;;24.00;22.60;;;;;;2270190;61;20480;-64
2023/04/14 09:45:41;0.00;0.00;0.62;0.00;0.00;0.62;2.00;1.20;;;23.90;22.60;;;;;;2272160;61;20405;-64
2023/04/14 09:48:26;0.00;0.00;0.62;0.00;0.00;0.62;2.10;1.60;;;24.00;22.60;;;;;;2271917;60;20452;-64
2023/04/14 09:51:12;0.00;0.00;0.62;0.00;0.00;0.62;1.83;1.37;;;24.00;22.60;;;;;;2271878;61;20783;-64
2023/04/14 09:54:03;0.00;0.00;0.62;0.00;0.00;0.62;2.10;1.40;;;24.00;22.60;;;;;;2272217;61;20457;-65
2023/04/14 09:56:48;0.00;0.00;0.62;0.00;0.00;0.62;2.10;1.20;;;24.00;22.70;;;;;;2272210;61;20363;-65
2023/04/14 09:59:35;0.00;0.00;0.62;0.00;0.00;0.62;1.80;1.33;;;24.00;22.70;;;;;;2271257;61;20769;-64
2023/04/14 10:02:20;0.00;0.00;0.62;0.00;0.00;0.62;2.50;1.60;;;24.00;22.60;;;;;;2272282;61;20500;-64
2023/04/14 10:05:06;0.00;0.00;0.62;0.00;0.00;0.62;1.80;1.20;;;24.00;22.60;;;;;;2272025;61;20789;-64
2023/04/14 10:07:51;0.00;0.00;0.62;0.00;0.00;0.62;1.70;1.30;;;24.10;22.70;;;;;;2272248;60;20893;-64
2023/04/14 10:10:37;0.00;0.00;0.62;0.00;0.00;0.62;2.43;1.30;;;24.10;22.70;;;;;;2271367;61;20406;-65
2023/04/14 10:13:22;0.00;0.00;0.62;0.00;0.00;0.62;1.90;1.30;;;24.10;22.70;;;;;;2272013;61;20415;-65
2023/04/14 10:16:07;0.00;0.00;0.62;0.00;0.00;0.62;1.93;1.20;;;24.10;22.70;;;;;;2272379;61;20855;-64
2023/04/14 10:18:54;0.00;0.00;0.62;0.00;0.00;0.62;1.97;1.13;;;24.10;22.70;;;;;;2271975;60;20898;-64
2023/04/14 10:21:39;0.00;0.00;0.62;0.00;0.00;0.62;1.90;1.37;;;24.10;22.70;;;;;;2271751;61;20354;-64
2023/04/14 10:24:25;0.00;0.00;0.62;0.00;0.00;0.62;1.63;1.00;;;24.20;22.70;;;;;;2271640;61;20408;-64
2023/04/14 10:27:12;0.00;0.00;0.62;0.00;0.00;0.62;1.43;1.00;;;24.20;22.70;;;;;;2271977;61;20366;-64
2023/04/14 10:29:57;0.00;0.00;0.62;0.00;0.00;0.62;1.60;1.10;;;24.10;22.70;;;;;;2271979;61;20410;-65
2023/04/14 10:32:44;0.00;0.00;0.62;0.00;0.00;0.62;1.70;1.07;;;24.20;22.70;;;;;;2271609;61;20398;-65
2023/04/14 10:35:38;0.00;0.00;0.62;0.00;0.00;0.62;1.80;1.30;;;24.20;22.70;;;;;;2271922;61;20476;-64
2023/04/14 10:38:44;0.00;0.00;0.62;0.00;0.00;0.62;1.40;0.83;;;24.20;22.80;;;;;;2272181;61;20390;-64
2023/04/14 10:41:45;0.00;0.00;0.62;0.00;0.00;0.62;1.57;1.03;;;24.20;22.80;;;;;;2272106;61;20385;-64
2023/04/14 10:44:33;0.00;0.00;0.62;0.00;0.00;0.62;1.73;1.00;;;24.20;22.80;;;;;;2271942;61;20418;-64
2023/04/14 10:47:23;0.00;0.00;0.62;0.00;0.00;0.62;1.80;1.20;;;24.30;22.80;;;;;;2271795;61;20936;-65
2023/04/14 10:50:14;0.00;0.00;0.62;0.00;0.00;0.62;1.93;1.10;;;24.30;22.80;;;;;;2271442;61;20394;-64
2023/04/14 10:53:06;0.00;0.00;0.62;0.00;0.00;0.62;1.73;1.10;;;24.30;22.90;;;;;;2272186;61;20370;-64
2023/04/14 10:55:56;0.00;0.00;0.62;0.00;0.00;0.62;1.60;1.00;;;24.30;22.80;;;;;;2271674;61;20428;-64
2023/04/14 10:58:53;0.00;0.00;0.62;0.00;0.00;0.62;1.40;0.87;;;24.30;22.80;;;;;;2272008;61;20477;-66
2023/04/14 11:01:40;0.00;0.00;0.62;0.00;0.00;0.62;1.40;1.00;;;24.30;22.80;;;;;;2271691;61;20382;-64
2023/04/14 11:04:25;0.00;0.00;0.62;0.00;0.00;0.62;1.50;1.00;;;24.30;22.80;;;;;;2272026;60;20416;-64
2023/04/14 11:07:10;0.00;0.00;0.62;0.00;0.00;0.62;2.07;1.30;;;24.30;22.90;;;;;;2273008;60;20362;-64